Private Wetterstation Wechselburg
Wetterdaten: Montag, 02.08.2021
Datum Zeit Temp. +2m Bodentemp. Temp.+5cm Temp. Wind Windchill X Diff Temp. Feuchte +2m Feuchte +5cm Luftdruck Regen Wind Richtung Richtung Sonnenschein Taupunkt Windchill Windben
02.08.2021 00:00 13,9 C 19,5 C 13,4 C 13,5 C 12,6 C 0,0 C 86 % 93 % 1010,5 hPa 0,0 l/m 0,0 km/h (0 Bft) W 270 0 min 11,6 C 12,6 C 1,9 km/h (1 Bft)
02.08.2021 00:05 13,7 C 19,5 C 13,4 C 13,3 C 12,5 C 0,0 C 86 % 93 % 1010,5 hPa 0,0 l/m 0,0 km/h (0 Bft) N-NW 337 0 min 11,4 C 12,5 C 0,0 km/h (0 Bft)
02.08.2021 00:10 13,6 C 19,5 C 13,3 C 13,2 C 12,5 C 0,0 C 87 % 93 % 1010,5 hPa 0,0 l/m 0,0 km/h (0 Bft) N-NW 337 0 min 11,5 C 12,5 C 0,0 km/h (0 Bft)
02.08.2021 00:15 13,7 C 19,5 C 13,2 C 13,3 C 12,4 C 0,0 C 86 % 93 % 1010,5 hPa 0,0 l/m 0,0 km/h (0 Bft) W 270 0 min 11,4 C 12,4 C 0,0 km/h (0 Bft)
02.08.2021 00:20 13,6 C 19,4 C 13,1 C 13,1 C 12,2 C 0,0 C 86 % 93 % 1010,6 hPa 0,0 l/m 0,0 km/h (0 Bft) W 270 0 min 11,3 C 12,2 C 0,0 km/h (0 Bft)
02.08.2021 00:25 13,5 C 19,4 C 13,0 C 13,0 C 12,1 C 0,0 C 87 % 93 % 1010,6 hPa 0,0 l/m 0,0 km/h (0 Bft) W 270 0 min 11,4 C 12,1 C 0,0 km/h (0 Bft)
02.08.2021 00:30 13,5 C 19,4 C 13,0 C 13,0 C 12,1 C 0,0 C 87 % 93 % 1010,6 hPa 0,0 l/m 0,0 km/h (0 Bft) W 270 0 min 11,4 C 12,1 C 0,0 km/h (0 Bft)
02.08.2021 00:35 13,4 C 19,4 C 13,1 C 13,0 C 12,1 C 0,0 C 87 % 93 % 1010,6 hPa 0,0 l/m 0,0 km/h (0 Bft) W 270 0 min 11,3 C 12,1 C 0,0 km/h (0 Bft)
02.08.2021 00:40 13,3 C 19,4 C 13,1 C 12,9 C 12,1 C 0,0 C 87 % 93 % 1010,6 hPa 0,0 l/m 0,0 km/h (0 Bft) S-SO 157 0 min 11,2 C 12,1 C 0,0 km/h (0 Bft)
02.08.2021 00:45 13,3 C 19,4 C 13,1 C 12,9 C 12,2 C 0,0 C 87 % 93 % 1010,6 hPa 0,0 l/m 0,0 km/h (0 Bft) S-SO 157 0 min 11,2 C 12,2 C 0,0 km/h (0 Bft)
02.08.2021 00:50 13,2 C 19,4 C 13,0 C 12,9 C 12,2 C 0,0 C 87 % 93 % 1010,6 hPa 0,0 l/m 0,0 km/h (0 Bft) S-SO 157 0 min 11,1 C 12,2 C 0,0 km/h (0 Bft)
02.08.2021 00:55 13,2 C 19,3 C 12,9 C 12,9 C 12,2 C 0,0 C 87 % 93 % 1010,6 hPa 0,0 l/m 0,0 km/h (0 Bft) S-SO 157 0 min 11,1 C 12,2 C 0,0 km/h (0 Bft)
02.08.2021 01:00 13,2 C 19,3 C 12,9 C 12,8 C 12,1 C 0,0 C 87 % 93 % 1010,9 hPa 0,0 l/m 0,0 km/h (0 Bft) S-SO 157 0 min 11,1 C 12,1 C 0,0 km/h (0 Bft)
02.08.2021 01:05 13,2 C 19,3 C 12,9 C 12,8 C 12,1 C 0,0 C 87 % 93 % 1010,9 hPa 0,0 l/m 0,0 km/h (0 Bft) O 90 0 min 11,1 C 12,1 C 0,0 km/h (0 Bft)
02.08.2021 01:10 13,1 C 19,3 C 12,9 C 12,8 C 12,1 C 0,0 C 87 % 93 % 1010,9 hPa 0,0 l/m 0,0 km/h (0 Bft) O 90 0 min 11,0 C 12,1 C 0,0 km/h (0 Bft)
02.08.2021 01:15 13,1 C 19,3 C 12,8 C 12,8 C 12,1 C 0,0 C 87 % 93 % 1010,9 hPa 0,0 l/m 0,0 km/h (0 Bft) O 90 0 min 11,0 C 12,1 C 0,0 km/h (0 Bft)
02.08.2021 01:20 13,1 C 19,3 C 12,8 C 12,8 C 12,1 C 0,0 C 87 % 93 % 1010,9 hPa 0,0 l/m 0,0 km/h (0 Bft) O 90 0 min 11,0 C 12,1 C 0,0 km/h (0 Bft)
02.08.2021 01:25 13,0 C 19,3 C 12,8 C 12,7 C 12,1 C 0,0 C 87 % 93 % 1010,9 hPa 0,0 l/m 0,0 km/h (0 Bft) O 90 0 min 10,9 C 12,1 C 0,0 km/h (0 Bft)
02.08.2021 01:30 13,0 C 19,2 C 12,8 C 12,7 C 12,2 C 0,0 C 87 % 93 % 1010,9 hPa 0,0 l/m 0,0 km/h (0 Bft) O 90 0 min 10,9 C 12,2 C 0,0 km/h (0 Bft)
02.08.2021 01:35 12,9 C 19,2 C 12,8 C 12,7 C 12,2 C 0,0 C 87 % 93 % 1010,9 hPa 0,0 l/m 0,0 km/h (0 Bft) O 90 0 min 10,8 C 12,2 C 0,0 km/h (0 Bft)
02.08.2021 01:40 12,9 C 19,3 C 12,9 C 12,7 C 12,3 C 0,0 C 87 % 93 % 1010,8 hPa 0,0 l/m 0,0 km/h (0 Bft) O 90 0 min 10,8 C 12,3 C 0,0 km/h (0 Bft)
02.08.2021 01:45 12,9 C 19,2 C 12,9 C 12,7 C 12,4 C 0,0 C 87 % 93 % 1010,8 hPa 0,0 l/m 0,0 km/h (0 Bft) O 90 0 min 10,8 C 12,4 C 0,0 km/h (0 Bft)
02.08.2021 01:50 12,9 C 19,2 C 12,9 C 12,7 C 12,4 C 0,0 C 88 % 93 % 1010,8 hPa 0,0 l/m 0,0 km/h (0 Bft) O 90 0 min 11,0 C 12,4 C 0,0 km/h (0 Bft)
02.08.2021 01:55 12,9 C 19,2 C 12,9 C 12,7 C 12,4 C 0,0 C 88 % 93 % 1010,8 hPa 0,0 l/m 0,0 km/h (0 Bft) O 90 0 min 11,0 C 12,4 C 0,0 km/h (0 Bft)
02.08.2021 02:00 12,9 C 19,2 C 12,9 C 12,7 C 12,4 C 0,0 C 88 % 93 % 1010,9 hPa 0,0 l/m 0,0 km/h (0 Bft) O 90 0 min 11,0 C 12,4 C 0,0 km/h (0 Bft)
02.08.2021 02:05 12,9 C 19,2 C 12,9 C 12,7 C 12,4 C 0,0 C 88 % 93 % 1010,9 hPa 0,0 l/m 0,0 km/h (0 Bft) O 90 0 min 11,0 C 12,4 C 0,0 km/h (0 Bft)
02.08.2021 02:10 12,8 C 19,2 C 13,0 C 12,7 C 12,5 C 0,0 C 88 % 93 % 1010,9 hPa 0,0 l/m 0,0 km/h (0 Bft) O 90 0 min 10,9 C 12,5 C 0,0 km/h (0 Bft)
02.08.2021 02:15 12,9 C 19,2 C 13,1 C 12,8 C 12,6 C 0,0 C 88 % 93 % 1010,9 hPa 0,0 l/m 0,0 km/h (0 Bft) O 90 0 min 11,0 C 12,6 C 0,0 km/h (0 Bft)
02.08.2021 02:20 12,9 C 19,2 C 13,1 C 12,8 C 12,6 C 0,0 C 88 % 93 % 1011,2 hPa 0,0 l/m 0,0 km/h (0 Bft) O 90 0 min 11,0 C 12,6 C 0,0 km/h (0 Bft)
02.08.2021 02:25 12,9 C 19,2 C 13,1 C 12,8 C 12,7 C 0,0 C 88 % 93 % 1011,2 hPa 0,0 l/m 0,0 km/h (0 Bft) O 90 0 min 11,0 C 12,7 C 0,0 km/h (0 Bft)
02.08.2021 02:30 12,9 C 19,2 C 13,2 C 12,9 C 12,8 C 0,0 C 88 % 93 % 1011,2 hPa 0,0 l/m 0,0 km/h (0 Bft) O 90 0 min 11,0 C 12,8 C 0,0 km/h (0 Bft)
02.08.2021 02:35 12,9 C 19,2 C 13,2 C 12,9 C 12,9 C 0,0 C 88 % 93 % 1011,2 hPa 0,0 l/m 0,0 km/h (0 Bft) O 90 0 min 11,0 C 12,9 C 0,0 km/h (0 Bft)
02.08.2021 02:40 12,9 C 19,1 C 13,2 C 12,9 C 12,9 C 0,0 C 88 % 93 % 1011,1 hPa 0,0 l/m 0,0 km/h (0 Bft) O 90 0 min 11,0 C 12,9 C 0,0 km/h (0 Bft)
02.08.2021 02:45 12,9 C 19,1 C 13,3 C 12,9 C 12,9 C 0,0 C 88 % 93 % 1011,1 hPa 0,0 l/m 0,0 km/h (0 Bft) O 90 0 min 11,0 C 12,9 C 0,0 km/h (0 Bft)
02.08.2021 02:50 12,9 C 19,1 C 13,3 C 12,9 C 12,9 C 0,0 C 88 % 93 % 1011,1 hPa 0,0 l/m 0,0 km/h (0 Bft) O 90 0 min 11,0 C 12,9 C 0,0 km/h (0 Bft)
02.08.2021 02:55 12,9 C 19,1 C 13,3 C 12,9 C 12,9 C 0,0 C 88 % 93 % 1011,1 hPa 0,0 l/m 0,0 km/h (0 Bft) O 90 0 min 11,0 C 12,9 C 0,0 km/h (0 Bft)
02.08.2021 03:00 12,9 C 19,1 C 13,1 C 12,7 C 12,4 C 0,0 C 88 % 93 % 1011,0 hPa 0,0 l/m 0,0 km/h (0 Bft) O 90 0 min 11,0 C 12,4 C 0,0 km/h (0 Bft)
02.08.2021 03:05 12,9 C 19,1 C 13,1 C 12,7 C 12,3 C 0,0 C 88 % 93 % 1011,0 hPa 0,0 l/m 0,0 km/h (0 Bft) O 90 0 min 11,0 C 12,3 C 0,0 km/h (0 Bft)
02.08.2021 03:10 12,9 C 19,1 C 13,1 C 12,7 C 12,3 C 0,0 C 88 % 93 % 1011,0 hPa 0,0 l/m 0,0 km/h (0 Bft) O 90 0 min 11,0 C 12,3 C 0,0 km/h (0 Bft)
02.08.2021 03:15 12,8 C 19,0 C 13,1 C 12,7 C 12,5 C 0,0 C 88 % 93 % 1011,2 hPa 0,0 l/m 0,0 km/h (0 Bft) O 90 0 min 10,9 C 12,5 C 0,0 km/h (0 Bft)
02.08.2021 03:20 12,8 C 19,0 C 13,1 C 12,7 C 12,5 C 0,0 C 88 % 93 % 1011,2 hPa 0,0 l/m 0,0 km/h (0 Bft) O 90 0 min 10,9 C 12,5 C 0,0 km/h (0 Bft)
02.08.2021 03:25 12,8 C 19,0 C 13,2 C 12,8 C 12,8 C 0,0 C 88 % 93 % 1011,2 hPa 0,0 l/m 0,0 km/h (0 Bft) O 90 0 min 10,9 C 12,8 C 0,0 km/h (0 Bft)
02.08.2021 03:30 12,8 C 19,0 C 13,2 C 12,8 C 12,8 C 0,0 C 88 % 93 % 1011,2 hPa 0,0 l/m 0,0 km/h (0 Bft) O 90 0 min 10,9 C 12,8 C 0,0 km/h (0 Bft)
02.08.2021 03:35 12,8 C 19,0 C 13,1 C 12,8 C 12,8 C 0,0 C 88 % 93 % 1011,2 hPa 0,0 l/m 0,0 km/h (0 Bft) O 90 0 min 10,9 C 12,8 C 0,0 km/h (0 Bft)
02.08.2021 03:40 12,9 C 19,0 C 13,1 C 12,8 C 12,6 C 0,0 C 88 % 93 % 1011,0 hPa 0,0 l/m 0,0 km/h (0 Bft) O 90 0 min 11,0 C 12,6 C 0,0 km/h (0 Bft)
02.08.2021 03:45 12,9 C 19,0 C 13,1 C 12,8 C 12,7 C 0,0 C 88 % 93 % 1011,0 hPa 0,0 l/m 0,0 km/h (0 Bft) O 90 0 min 11,0 C 12,7 C 0,0 km/h (0 Bft)
02.08.2021 03:50 12,9 C 19,0 C 13,2 C 12,9 C 12,8 C 0,0 C 88 % 93 % 1011,0 hPa 0,0 l/m 0,0 km/h (0 Bft) O 90 0 min 11,0 C 12,8 C 0,0 km/h (0 Bft)
02.08.2021 03:55 12,9 C 19,0 C 13,3 C 13,1 C 13,1 C 0,2 C 88 % 93 % 1011,2 hPa 0,0 l/m 0,0 km/h (0 Bft) O 90 0 min 11,0 C 13,1 C 0,0 km/h (0 Bft)
02.08.2021 04:00 12,9 C 19,0 C 13,3 C 13,1 C 13,1 C 0,2 C 88 % 93 % 1011,2 hPa 0,0 l/m 0,0 km/h (0 Bft) O 90 0 min 11,0 C 13,1 C 0,0 km/h (0 Bft)
02.08.2021 04:05 12,8 C 18,9 C 13,3 C 13,2 C 13,2 C 0,4 C 88 % 93 % 1011,2 hPa 1,4 l/m 0,0 km/h (0 Bft) O 90 0 min 10,9 C 13,2 C 0,0 km/h (0 Bft)
02.08.2021 04:10 12,8 C 18,9 C 13,3 C 13,2 C 13,2 C 0,4 C 88 % 93 % 1011,2 hPa 0,0 l/m 0,0 km/h (0 Bft) O 90 0 min 10,9 C 13,2 C 0,0 km/h (0 Bft)
02.08.2021 04:15 12,9 C 18,8 C 13,3 C 13,2 C 13,2 C 0,3 C 88 % 93 % 1011,4 hPa 0,0 l/m 0,0 km/h (0 Bft) SO 135 0 min 11,0 C 13,2 C 0,0 km/h (0 Bft)
02.08.2021 04:20 12,9 C 18,8 C 13,3 C 13,3 C 13,3 C 0,4 C 88 % 93 % 1011,4 hPa 0,7 l/m 0,0 km/h (0 Bft) SO 135 0 min 11,0 C 13,3 C 0,0 km/h (0 Bft)
02.08.2021 04:25 12,9 C 18,8 C 13,3 C 13,3 C 13,3 C 0,4 C 88 % 93 % 1011,4 hPa 0,0 l/m 0,0 km/h (0 Bft) SO 135 0 min 11,0 C 13,3 C 0,0 km/h (0 Bft)
02.08.2021 04:30 12,9 C 18,8 C 13,3 C 13,4 C 13,4 C 0,5 C 88 % 92 % 1011,4 hPa 0,0 l/m 0,0 km/h (0 Bft) SO 135 0 min 11,0 C 13,4 C 0,0 km/h (0 Bft)
02.08.2021 04:35 12,9 C 18,8 C 13,3 C 13,3 C 13,3 C 0,4 C 88 % 92 % 1011,4 hPa 0,0 l/m 0,0 km/h (0 Bft) SO 135 0 min 11,0 C 13,3 C 0,0 km/h (0 Bft)
02.08.2021 04:40 12,9 C 18,8 C 13,3 C 13,3 C 13,3 C 0,4 C 88 % 92 % 1011,6 hPa 0,0 l/m 0,0 km/h (0 Bft) W-SW 247 0 min 11,0 C 13,3 C 1,8 km/h (1 Bft)
02.08.2021 04:45 12,9 C 18,8 C 13,3 C 13,3 C 13,3 C 0,4 C 88 % 92 % 1011,6 hPa 0,0 l/m 0,0 km/h (0 Bft) W-SW 247 0 min 11,0 C 13,3 C 0,0 km/h (0 Bft)
02.08.2021 04:50 13,0 C 18,8 C 13,3 C 13,2 C 13,2 C 0,2 C 88 % 92 % 1011,6 hPa 0,0 l/m 0,0 km/h (0 Bft) W 270 0 min 11,1 C 13,2 C 0,0 km/h (0 Bft)
02.08.2021 04:55 12,9 C 18,8 C 13,3 C 13,3 C 13,3 C 0,4 C 88 % 92 % 1011,6 hPa 0,0 l/m 0,0 km/h (0 Bft) W 270 0 min 11,0 C 13,3 C 0,0 km/h (0 Bft)
02.08.2021 05:00 13,0 C 18,8 C 13,4 C 13,4 C 13,4 C 0,4 C 88 % 92 % 1011,9 hPa 0,0 l/m 0,0 km/h (0 Bft) W 270 0 min 11,1 C 13,4 C 0,0 km/h (0 Bft)
02.08.2021 05:05 13,0 C 18,8 C 13,4 C 13,4 C 13,4 C 0,4 C 88 % 92 % 1011,9 hPa 0,0 l/m 0,0 km/h (0 Bft) W-SW 247 0 min 11,1 C 13,4 C 0,0 km/h (0 Bft)
02.08.2021 05:10 13,0 C 18,8 C 13,5 C 13,4 C 13,4 C 0,4 C 88 % 92 % 1011,9 hPa 0,0 l/m 0,0 km/h (0 Bft) W-SW 247 0 min 11,1 C 13,4 C 0,0 km/h (0 Bft)
02.08.2021 05:15 13,0 C 18,8 C 13,5 C 13,4 C 13,4 C 0,4 C 88 % 92 % 1011,9 hPa 0,0 l/m 0,0 km/h (0 Bft) W-SW 247 0 min 11,1 C 13,4 C 0,0 km/h (0 Bft)
02.08.2021 05:20 13,1 C 18,8 C 13,5 C 13,4 C 13,4 C 0,3 C 88 % 92 % 1011,9 hPa 0,0 l/m 0,0 km/h (0 Bft) W-SW 247 0 min 11,2 C 13,4 C 0,0 km/h (0 Bft)
02.08.2021 05:25 13,1 C 18,8 C 13,5 C 13,4 C 13,4 C 0,3 C 88 % 92 % 1011,9 hPa 0,0 l/m 0,0 km/h (0 Bft) W-SW 247 0 min 11,2 C 13,4 C 0,0 km/h (0 Bft)
02.08.2021 05:30 13,1 C 18,7 C 13,5 C 13,5 C 13,5 C 0,4 C 88 % 92 % 1011,9 hPa 0,0 l/m 0,0 km/h (0 Bft) W-NW 292 0 min 11,2 C 13,5 C 1,9 km/h (1 Bft)
02.08.2021 05:35 13,0 C 18,7 C 13,5 C 13,5 C 13,5 C 0,5 C 88 % 92 % 1011,9 hPa 0,0 l/m 0,0 km/h (0 Bft) W-NW 292 0 min 11,1 C 13,5 C 0,0 km/h (0 Bft)
02.08.2021 05:40 13,0 C 18,7 C 13,5 C 13,5 C 13,5 C 0,5 C 88 % 92 % 1011,9 hPa 0,0 l/m 0,0 km/h (0 Bft) W-NW 292 0 min 11,1 C 13,5 C 0,0 km/h (0 Bft)
02.08.2021 05:45 13,1 C 18,7 C 13,5 C 13,5 C 13,5 C 0,4 C 88 % 92 % 1011,9 hPa 0,0 l/m 0,0 km/h (0 Bft) W-NW 292 0 min 11,2 C 13,5 C 0,0 km/h (0 Bft)
02.08.2021 05:50 13,1 C 18,7 C 13,5 C 13,5 C 13,5 C 0,4 C 88 % 92 % 1011,9 hPa 0,0 l/m 0,0 km/h (0 Bft) W-NW 292 5 min 11,2 C 13,5 C 0,0 km/h (0 Bft)
02.08.2021 05:55 13,1 C 18,7 C 13,6 C 13,6 C 13,6 C 0,5 C 88 % 92 % 1011,9 hPa 0,0 l/m 0,0 km/h (0 Bft) W-NW 292 5 min 11,2 C 13,6 C 0,0 km/h (0 Bft)
02.08.2021 06:00 13,1 C 18,7 C 13,6 C 13,6 C 13,6 C 0,5 C 88 % 92 % 1012,1 hPa 0,0 l/m 0,0 km/h (0 Bft) SW 225 5 min 11,2 C 13,6 C 0,0 km/h (0 Bft)
02.08.2021 06:05 13,1 C 18,7 C 13,7 C 13,6 C 13,6 C 0,5 C 88 % 92 % 1012,1 hPa 0,0 l/m 0,0 km/h (0 Bft) SW 225 0 min 11,2 C 13,6 C 0,0 km/h (0 Bft)
02.08.2021 06:10 13,1 C 18,7 C 13,7 C 13,6 C 13,6 C 0,5 C 88 % 92 % 1012,1 hPa 0,0 l/m 0,0 km/h (0 Bft) SW 225 0 min 11,2 C 13,6 C 0,0 km/h (0 Bft)
02.08.2021 06:15 13,1 C 18,8 C 13,7 C 13,7 C 13,7 C 0,6 C 88 % 92 % 1012,2 hPa 0,0 l/m 0,0 km/h (0 Bft) SW 225 0 min 11,2 C 13,7 C 0,0 km/h (0 Bft)
02.08.2021 06:20 13,1 C 18,8 C 13,7 C 13,7 C 13,7 C 0,6 C 88 % 92 % 1012,2 hPa 0,0 l/m 0,0 km/h (0 Bft) SW 225 0 min 11,2 C 13,7 C 0,0 km/h (0 Bft)
02.08.2021 06:25 13,1 C 18,7 C 13,7 C 13,8 C 13,8 C 0,7 C 88 % 92 % 1012,2 hPa 0,0 l/m 0,0 km/h (0 Bft) SW 225 0 min 11,2 C 13,8 C 0,0 km/h (0 Bft)
02.08.2021 06:30 13,1 C 18,7 C 13,7 C 13,8 C 13,8 C 0,7 C 88 % 92 % 1012,2 hPa 0,0 l/m 0,0 km/h (0 Bft) SW 225 0 min 11,2 C 13,8 C 0,0 km/h (0 Bft)
02.08.2021 06:35 13,0 C 18,7 C 13,7 C 13,8 C 13,8 C 0,8 C 88 % 92 % 1012,2 hPa 0,0 l/m 0,0 km/h (0 Bft) S 180 0 min 11,1 C 13,8 C 0,0 km/h (0 Bft)
02.08.2021 06:40 13,0 C 18,7 C 13,8 C 13,9 C 13,9 C 0,9 C 88 % 92 % 1012,4 hPa 0,0 l/m 0,0 km/h (0 Bft) S 180 0 min 11,1 C 13,9 C 0,0 km/h (0 Bft)
02.08.2021 06:45 13,0 C 18,7 C 13,9 C 14,0 C 14,0 C 1,0 C 88 % 92 % 1012,4 hPa 0,0 l/m 0,0 km/h (0 Bft) S 180 0 min 11,1 C 14,0 C 0,0 km/h (0 Bft)
02.08.2021 06:50 13,1 C 18,7 C 13,9 C 14,2 C 14,2 C 1,1 C 88 % 92 % 1012,4 hPa 0,0 l/m 0,0 km/h (0 Bft) S-SO 157 0 min 11,2 C 14,2 C 0,0 km/h (0 Bft)
02.08.2021 06:55 13,1 C 18,7 C 13,9 C 14,2 C 14,2 C 1,1 C 88 % 92 % 1012,4 hPa 0,0 l/m 0,0 km/h (0 Bft) S-SO 157 0 min 11,2 C 14,2 C 0,0 km/h (0 Bft)
02.08.2021 07:00 13,1 C 18,7 C 14,0 C 14,2 C 14,2 C 1,1 C 88 % 92 % 1012,8 hPa 0,0 l/m 0,0 km/h (0 Bft) SW 225 0 min 11,2 C 14,2 C 0,0 km/h (0 Bft)
02.08.2021 07:05 13,1 C 18,7 C 14,0 C 14,2 C 14,2 C 1,1 C 88 % 92 % 1012,8 hPa 0,0 l/m 0,0 km/h (0 Bft) S 180 0 min 11,2 C 14,2 C 0,0 km/h (0 Bft)
02.08.2021 07:10 13,2 C 18,7 C 14,1 C 14,4 C 14,4 C 1,2 C 88 % 92 % 1012,8 hPa 0,0 l/m 0,0 km/h (0 Bft) W-SW 247 0 min 11,3 C 14,4 C 0,0 km/h (0 Bft)
02.08.2021 07:15 13,2 C 18,7 C 14,1 C 14,4 C 14,4 C 1,2 C 88 % 92 % 1012,8 hPa 0,0 l/m 0,0 km/h (0 Bft) SW 225 0 min 11,3 C 14,4 C 0,0 km/h (0 Bft)
02.08.2021 07:20 13,2 C 18,7 C 14,1 C 14,4 C 14,4 C 1,2 C 88 % 92 % 1013,4 hPa 0,0 l/m 0,0 km/h (0 Bft) S 180 0 min 11,3 C 14,4 C 0,0 km/h (0 Bft)
02.08.2021 07:25 13,3 C 18,7 C 14,2 C 14,5 C 14,5 C 1,2 C 88 % 92 % 1013,4 hPa 0,0 l/m 0,0 km/h (0 Bft) SW 225 0 min 11,4 C 14,5 C 0,0 km/h (0 Bft)
02.08.2021 07:30 13,3 C 18,8 C 14,2 C 14,5 C 14,5 C 1,2 C 88 % 92 % 1013,4 hPa 0,0 l/m 0,0 km/h (0 Bft) SW 225 0 min 11,4 C 14,5 C 0,0 km/h (0 Bft)
02.08.2021 07:35 13,3 C 18,8 C 14,3 C 14,6 C 14,6 C 1,3 C 88 % 92 % 1012,9 hPa 0,0 l/m 0,0 km/h (0 Bft) W-SW 247 0 min 11,4 C 14,6 C 0,0 km/h (0 Bft)
02.08.2021 07:40 13,4 C 18,8 C 14,2 C 14,6 C 14,6 C 1,2 C 88 % 92 % 1012,9 hPa 0,0 l/m 0,0 km/h (0 Bft) SW 225 0 min 11,5 C 14,6 C 0,0 km/h (0 Bft)
02.08.2021 07:45 13,4 C 18,8 C 14,3 C 14,6 C 14,6 C 1,2 C 88 % 92 % 1012,9 hPa 0,0 l/m 0,0 km/h (0 Bft) S-SW 202 0 min 11,5 C 14,6 C 0,0 km/h (0 Bft)
02.08.2021 07:50 13,4 C 18,8 C 14,3 C 14,6 C 14,6 C 1,2 C 88 % 92 % 1012,9 hPa 0,0 l/m 0,2 km/h (0 Bft) SW 225 0 min 11,5 C 14,6 C 0,0 km/h (0 Bft)
02.08.2021 07:55 13,4 C 18,8 C 14,3 C 14,6 C 14,6 C 1,2 C 88 % 92 % 1012,9 hPa 0,0 l/m 0,2 km/h (0 Bft) SW 225 0 min 11,5 C 14,6 C 0,0 km/h (0 Bft)
02.08.2021 08:00 13,5 C 18,8 C 14,3 C 14,9 C 14,9 C 1,4 C 88 % 92 % 1012,8 hPa 0,0 l/m 0,2 km/h (0 Bft) S-SW 202 0 min 11,6 C 14,9 C 3,4 km/h (1 Bft)
02.08.2021 08:05 13,6 C 18,8 C 14,3 C 15,0 C 15,0 C 1,4 C 88 % 92 % 1012,8 hPa 0,0 l/m 0,5 km/h (0 Bft) SW 225 0 min 11,6 C 15,0 C 0,0 km/h (0 Bft)
02.08.2021 08:10 13,6 C 18,8 C 14,3 C 15,0 C 15,0 C 1,4 C 88 % 92 % 1012,8 hPa 0,0 l/m 0,5 km/h (0 Bft) SW 225 0 min 11,6 C 15,0 C 3,7 km/h (1 Bft)
02.08.2021 08:15 13,7 C 18,8 C 14,5 C 15,5 C 15,5 C 1,8 C 88 % 92 % 1013,0 hPa 0,0 l/m 0,3 km/h (0 Bft) SW 225 0 min 11,7 C 15,5 C 1,6 km/h (1 Bft)
02.08.2021 08:20 13,8 C 18,8 C 14,6 C 15,7 C 15,7 C 1,9 C 88 % 92 % 1013,0 hPa 0,0 l/m 0,2 km/h (0 Bft) O-SO 112 0 min 11,8 C 15,7 C 0,0 km/h (0 Bft)
02.08.2021 08:25 13,9 C 18,8 C 14,7 C 15,9 C 15,9 C 2,0 C 88 % 92 % 1013,0 hPa 0,0 l/m 0,2 km/h (0 Bft) W-SW 247 0 min 11,9 C 15,9 C 0,0 km/h (0 Bft)
02.08.2021 08:30 13,9 C 18,8 C 14,7 C 15,9 C 15,9 C 2,0 C 88 % 92 % 1013,0 hPa 0,0 l/m 0,2 km/h (0 Bft) W-SW 247 0 min 11,9 C 15,9 C 0,0 km/h (0 Bft)
02.08.2021 08:35 13,9 C 18,8 C 14,7 C 16,2 C 16,2 C 2,3 C 87 % 92 % 1013,0 hPa 0,0 l/m 0,2 km/h (0 Bft) SW 225 0 min 11,8 C 16,2 C 0,0 km/h (0 Bft)
02.08.2021 08:40 14,3 C 18,8 C 15,0 C 17,2 C 17,2 C 2,9 C 88 % 93 % 1013,1 hPa 0,0 l/m 0,5 km/h (0 Bft) W 270 0 min 12,3 C 17,2 C 2,9 km/h (1 Bft)
02.08.2021 08:45 14,3 C 18,8 C 15,0 C 17,2 C 17,2 C 2,9 C 88 % 93 % 1013,1 hPa 0,0 l/m 0,6 km/h (0 Bft) W-SW 247 0 min 12,3 C 17,2 C 2,3 km/h (1 Bft)
02.08.2021 08:50 14,4 C 18,8 C 15,0 C 17,4 C 17,4 C 3,0 C 88 % 93 % 1013,1 hPa 0,0 l/m 0,8 km/h (0 Bft) S-SW 202 0 min 12,4 C 17,4 C 1,9 km/h (1 Bft)
02.08.2021 08:55 14,6 C 18,8 C 15,0 C 17,3 C 17,3 C 2,7 C 88 % 93 % 1013,2 hPa 0,0 l/m 1,3 km/h (1 Bft) SW 225 0 min 12,6 C 17,3 C 2,7 km/h (1 Bft)
02.08.2021 09:00 14,6 C 18,8 C 15,0 C 17,3 C 17,3 C 2,7 C 88 % 93 % 1013,2 hPa 0,0 l/m 1,3 km/h (1 Bft) SW 225 0 min 12,6 C 17,3 C 2,7 km/h (1 Bft)
02.08.2021 09:05 14,9 C 18,8 C 15,1 C 17,4 C 17,4 C 2,5 C 87 % 93 % 1013,2 hPa 0,0 l/m 0,6 km/h (0 Bft) SW 225 0 min 12,8 C 17,4 C 2,4 km/h (1 Bft)
02.08.2021 09:10 15,1 C 18,8 C 15,2 C 17,6 C 17,6 C 2,5 C 87 % 93 % 1013,2 hPa 0,0 l/m 0,5 km/h (0 Bft) S-SW 202 0 min 13,0 C 17,6 C 2,6 km/h (1 Bft)
02.08.2021 09:15 15,1 C 18,8 C 15,2 C 17,6 C 17,6 C 2,5 C 87 % 93 % 1013,2 hPa 0,0 l/m 0,5 km/h (0 Bft) S-SW 202 0 min 13,0 C 17,6 C 2,6 km/h (1 Bft)
02.08.2021 09:20 15,3 C 18,7 C 15,5 C 18,2 C 18,2 C 2,9 C 87 % 93 % 1013,4 hPa 0,0 l/m 0,5 km/h (0 Bft) SW 225 0 min 13,1 C 18,2 C 3,9 km/h (1 Bft)
02.08.2021 09:25 15,5 C 18,6 C 15,5 C 18,4 C 18,4 C 2,9 C 88 % 93 % 1013,4 hPa 0,0 l/m 1,0 km/h (0 Bft) W-SW 247 0 min 13,5 C 18,4 C 4,5 km/h (1 Bft)
02.08.2021 09:30 15,6 C 18,6 C 15,6 C 18,4 C 18,4 C 2,8 C 88 % 93 % 1013,4 hPa 0,0 l/m 1,4 km/h (1 Bft) W-SW 247 0 min 13,6 C 18,4 C 1,8 km/h (1 Bft)
02.08.2021 09:35 15,9 C 18,6 C 15,7 C 18,8 C 18,8 C 2,9 C 88 % 93 % 1013,6 hPa 0,0 l/m 1,3 km/h (1 Bft) SO 135 0 min 13,9 C 18,8 C 0,0 km/h (0 Bft)
02.08.2021 09:40 16,1 C 18,6 C 15,9 C 19,2 C 19,2 C 3,1 C 87 % 93 % 1013,6 hPa 0,0 l/m 0,8 km/h (0 Bft) SW 225 0 min 13,9 C 19,2 C 6,0 km/h (2 Bft)
02.08.2021 09:45 16,3 C 18,5 C 15,9 C 19,5 C 19,5 C 3,2 C 87 % 93 % 1013,6 hPa 0,0 l/m 1,8 km/h (1 Bft) S 180 0 min 14,1 C 19,5 C 2,6 km/h (1 Bft)
02.08.2021 09:50 16,3 C 18,5 C 15,9 C 19,6 C 19,6 C 3,3 C 87 % 93 % 1013,6 hPa 0,0 l/m 1,9 km/h (1 Bft) W 270 5 min 14,1 C 19,6 C 3,1 km/h (1 Bft)
02.08.2021 09:55 16,4 C 18,5 C 15,9 C 19,5 C 19,5 C 3,1 C 87 % 93 % 1013,6 hPa 0,0 l/m 1,1 km/h (1 Bft) SW 225 0 min 14,2 C 19,5 C 0,0 km/h (0 Bft)
02.08.2021 10:00 16,4 C 18,5 C 15,9 C 19,3 C 19,3 C 2,9 C 86 % 93 % 1013,6 hPa 0,0 l/m 1,3 km/h (1 Bft) S 180 0 min 14,1 C 19,3 C 3,1 km/h (1 Bft)
02.08.2021 10:05 16,4 C 18,4 C 16,0 C 19,2 C 19,2 C 2,8 C 86 % 93 % 1013,6 hPa 0,0 l/m 1,4 km/h (1 Bft) SW 225 0 min 14,1 C 19,2 C 3,4 km/h (1 Bft)
02.08.2021 10:10 16,5 C 18,4 C 16,1 C 19,6 C 19,6 C 3,1 C 85 % 94 % 1013,6 hPa 0,0 l/m 1,8 km/h (1 Bft) S-SW 202 0 min 14,0 C 19,6 C 3,5 km/h (1 Bft)
02.08.2021 10:15 16,6 C 18,4 C 16,3 C 20,0 C 20,0 C 3,4 C 85 % 93 % 1013,6 hPa 0,0 l/m 1,9 km/h (1 Bft) W 270 5 min 14,1 C 20,0 C 2,4 km/h (1 Bft)
02.08.2021 10:20 16,7 C 18,4 C 16,4 C 20,3 C 20,3 C 3,6 C 84 % 93 % 1013,6 hPa 0,0 l/m 1,6 km/h (1 Bft) W-SW 247 5 min 14,0 C 20,3 C 1,9 km/h (1 Bft)
02.08.2021 10:25 16,8 C 18,4 C 16,5 C 20,7 C 20,7 C 3,9 C 84 % 93 % 1013,6 hPa 0,0 l/m 1,4 km/h (1 Bft) W-SW 247 5 min 14,1 C 20,7 C 3,1 km/h (1 Bft)
02.08.2021 10:30 16,8 C 18,4 C 16,5 C 20,7 C 20,7 C 3,9 C 84 % 93 % 1013,6 hPa 0,0 l/m 1,4 km/h (1 Bft) W-SW 247 5 min 14,1 C 20,7 C 3,1 km/h (1 Bft)
02.08.2021 10:35 17,3 C 18,3 C 16,7 C 21,0 C 21,0 C 3,7 C 84 % 93 % 1013,8 hPa 0,0 l/m 0,6 km/h (0 Bft) W-SW 247 5 min 14,6 C 21,0 C 2,4 km/h (1 Bft)
02.08.2021 10:40 17,2 C 18,3 C 16,8 C 21,3 C 21,3 C 4,1 C 83 % 93 % 1013,8 hPa 0,0 l/m 0,6 km/h (0 Bft) SW 225 5 min 14,3 C 21,3 C 3,2 km/h (1 Bft)
02.08.2021 10:45 17,3 C 18,3 C 16,9 C 21,5 C 21,5 C 4,2 C 82 % 93 % 1013,8 hPa 0,0 l/m 1,1 km/h (1 Bft) W-NW 292 5 min 14,2 C 21,5 C 2,9 km/h (1 Bft)
02.08.2021 10:50 17,3 C 18,3 C 16,9 C 21,5 C 21,5 C 4,2 C 82 % 93 % 1013,8 hPa 0,0 l/m 1,1 km/h (1 Bft) W-NW 292 5 min 14,2 C 21,5 C 2,9 km/h (1 Bft)
02.08.2021 10:55 17,5 C 18,3 C 16,9 C 21,7 C 21,7 C 4,2 C 81 % 93 % 1014,0 hPa 0,0 l/m 1,1 km/h (1 Bft) W-SW 247 5 min 14,2 C 21,7 C 3,7 km/h (1 Bft)
02.08.2021 11:00 17,5 C 18,3 C 16,7 C 21,0 C 21,0 C 3,5 C 81 % 93 % 1014,0 hPa 0,0 l/m 1,3 km/h (1 Bft) W 270 5 min 14,2 C 21,0 C 8,5 km/h (2 Bft)
02.08.2021 11:05 17,3 C 18,2 C 16,7 C 21,3 C 21,3 C 4,0 C 80 % 93 % 1014,0 hPa 0,0 l/m 1,6 km/h (1 Bft) SW 225 5 min 13,8 C 21,3 C 2,3 km/h (1 Bft)
02.08.2021 11:10 17,3 C 18,2 C 16,9 C 21,7 C 21,7 C 4,4 C 80 % 93 % 1014,0 hPa 0,0 l/m 1,8 km/h (1 Bft) S 180 5 min 13,8 C 21,7 C 2,3 km/h (1 Bft)
02.08.2021 11:15 17,5 C 18,2 C 17,0 C 21,6 C 21,6 C 4,1 C 79 % 93 % 1013,5 hPa 0,0 l/m 1,9 km/h (1 Bft) W-SW 247 5 min 13,8 C 21,6 C 2,3 km/h (1 Bft)
02.08.2021 11:20 17,6 C 18,2 C 17,1 C 21,4 C 21,4 C 3,8 C 79 % 93 % 1013,5 hPa 0,0 l/m 1,9 km/h (1 Bft) S 180 5 min 13,9 C 21,4 C 4,0 km/h (1 Bft)
02.08.2021 11:25 17,7 C 18,2 C 17,4 C 21,5 C 21,5 C 3,8 C 79 % 92 % 1013,5 hPa 0,0 l/m 1,9 km/h (1 Bft) S-SW 202 5 min 14,0 C 21,5 C 2,7 km/h (1 Bft)
02.08.2021 11:30 17,9 C 18,2 C 17,3 C 21,7 C 21,7 C 3,8 C 78 % 92 % 1013,5 hPa 0,0 l/m 2,4 km/h (1 Bft) W-SW 247 5 min 14,0 C 21,7 C 2,9 km/h (1 Bft)
02.08.2021 11:35 17,9 C 18,2 C 17,3 C 20,9 C 20,9 C 3,0 C 77 % 92 % 1013,7 hPa 0,0 l/m 2,3 km/h (1 Bft) SW 225 0 min 13,8 C 20,9 C 2,9 km/h (1 Bft)
02.08.2021 11:40 18,0 C 18,2 C 17,5 C 20,9 C 20,9 C 2,9 C 76 % 92 % 1013,7 hPa 0,0 l/m 2,4 km/h (1 Bft) S 180 0 min 13,7 C 20,9 C 2,7 km/h (1 Bft)
02.08.2021 11:45 18,3 C 18,1 C 17,8 C 21,7 C 21,7 C 3,4 C 76 % 92 % 1013,7 hPa 0,0 l/m 2,4 km/h (1 Bft) S 180 5 min 14,0 C 21,7 C 1,8 km/h (1 Bft)
02.08.2021 11:50 18,5 C 18,1 C 17,9 C 22,2 C 22,2 C 3,7 C 75 % 92 % 1013,7 hPa 0,0 l/m 2,1 km/h (1 Bft) W 270 5 min 14,0 C 22,2 C 2,1 km/h (1 Bft)
02.08.2021 11:55 18,5 C 18,1 C 17,7 C 21,9 C 21,9 C 3,4 C 74 % 92 % 1013,8 hPa 0,0 l/m 2,3 km/h (1 Bft) SW 225 5 min 13,8 C 21,9 C 2,7 km/h (1 Bft)
02.08.2021 12:00 18,4 C 18,1 C 17,9 C 21,8 C 21,8 C 3,4 C 74 % 92 % 1013,8 hPa 0,0 l/m 2,4 km/h (1 Bft) NW 315 5 min 13,7 C 21,8 C 3,4 km/h (1 Bft)
02.08.2021 12:05 18,5 C 18,1 C 18,0 C 22,1 C 22,1 C 3,6 C 73 % 92 % 1013,8 hPa 0,0 l/m 2,3 km/h (1 Bft) S-SO 157 5 min 13,6 C 22,1 C 1,9 km/h (1 Bft)
02.08.2021 12:10 18,5 C 18,1 C 18,0 C 22,1 C 22,1 C 3,6 C 73 % 92 % 1013,8 hPa 0,0 l/m 2,3 km/h (1 Bft) S-SO 157 5 min 13,6 C 22,1 C 1,9 km/h (1 Bft)
02.08.2021 12:15 18,7 C 18,1 C 17,9 C 22,4 C 22,4 C 3,7 C 71 % 91 % 1013,9 hPa 0,0 l/m 2,7 km/h (1 Bft) SW 225 5 min 13,3 C 22,4 C 5,6 km/h (1 Bft)
02.08.2021 12:20 18,8 C 18,1 C 18,1 C 22,9 C 22,9 C 4,1 C 71 % 90 % 1013,9 hPa 0,0 l/m 3,2 km/h (1 Bft) SO 135 5 min 13,4 C 22,9 C 10,3 km/h (2 Bft)
02.08.2021 12:25 19,1 C 18,1 C 18,3 C 24,2 C 24,2 C 5,1 C 71 % 90 % 1013,9 hPa 0,0 l/m 3,4 km/h (1 Bft) SW 225 5 min 13,7 C 24,2 C 3,1 km/h (1 Bft)
02.08.2021 12:30 19,2 C 18,1 C 18,4 C 24,3 C 24,3 C 5,1 C 70 % 90 % 1013,9 hPa 0,0 l/m 3,2 km/h (1 Bft) S 180 5 min 13,6 C 24,3 C 10,3 km/h (2 Bft)
02.08.2021 12:35 19,5 C 18,1 C 18,7 C 25,7 C 25,7 C 6,2 C 69 % 90 % 1013,7 hPa 0,0 l/m 2,6 km/h (1 Bft) W-SW 247 5 min 13,7 C 25,7 C 3,9 km/h (1 Bft)
02.08.2021 12:40 19,4 C 18,1 C 18,6 C 25,2 C 25,2 C 5,8 C 69 % 90 % 1013,7 hPa 0,0 l/m 2,4 km/h (1 Bft) SW 225 5 min 13,6 C 25,2 C 2,7 km/h (1 Bft)
02.08.2021 12:45 19,2 C 18,1 C 18,3 C 23,6 C 23,6 C 4,4 C 68 % 89 % 1013,7 hPa 0,0 l/m 2,6 km/h (1 Bft) W-SW 247 5 min 13,1 C 23,6 C 2,7 km/h (1 Bft)
02.08.2021 12:50 19,2 C 18,1 C 18,4 C 23,5 C 23,5 C 4,3 C 69 % 89 % 1013,7 hPa 0,0 l/m 2,4 km/h (1 Bft) S 180 5 min 13,4 C 23,5 C 3,5 km/h (1 Bft)
02.08.2021 12:55 19,5 C 18,0 C 18,4 C 23,9 C 23,9 C 4,4 C 67 % 87 % 1013,9 hPa 0,0 l/m 2,6 km/h (1 Bft) S-SW 202 5 min 13,2 C 23,9 C 1,9 km/h (1 Bft)
02.08.2021 13:00 19,4 C 18,1 C 18,3 C 23,2 C 23,2 C 3,8 C 67 % 87 % 1013,9 hPa 0,0 l/m 2,9 km/h (1 Bft) S-SW 202 5 min 13,1 C 23,2 C 3,5 km/h (1 Bft)
02.08.2021 13:05 19,4 C 18,0 C 18,4 C 23,0 C 23,0 C 3,6 C 67 % 87 % 1013,9 hPa 0,0 l/m 2,6 km/h (1 Bft) W-SW 247 5 min 13,1 C 23,0 C 3,1 km/h (1 Bft)
02.08.2021 13:10 19,4 C 18,0 C 18,4 C 23,0 C 23,0 C 3,6 C 67 % 87 % 1013,9 hPa 0,0 l/m 2,6 km/h (1 Bft) W-SW 247 5 min 13,1 C 23,0 C 3,1 km/h (1 Bft)
02.08.2021 13:15 20,4 C 18,1 C 19,6 C 25,7 C 25,7 C 5,3 C 65 % 86 % 1013,8 hPa 0,0 l/m 2,1 km/h (1 Bft) NW 315 5 min 13,6 C 25,7 C 2,9 km/h (1 Bft)
02.08.2021 13:20 20,5 C 18,1 C 19,9 C 26,0 C 26,0 C 5,5 C 64 % 85 % 1013,8 hPa 0,0 l/m 2,4 km/h (1 Bft) S 180 5 min 13,5 C 26,0 C 4,8 km/h (1 Bft)
02.08.2021 13:25 20,6 C 18,1 C 19,9 C 26,2 C 26,2 C 5,6 C 63 % 83 % 1013,8 hPa 0,0 l/m 3,1 km/h (1 Bft) SW 225 5 min 13,3 C 26,2 C 2,9 km/h (1 Bft)
02.08.2021 13:30 20,8 C 18,1 C 19,9 C 26,1 C 26,1 C 5,3 C 62 % 82 % 1013,8 hPa 0,0 l/m 3,1 km/h (1 Bft) W-SW 247 5 min 13,2 C 26,1 C 3,7 km/h (1 Bft)
02.08.2021 13:35 20,8 C 18,1 C 19,9 C 26,1 C 26,1 C 5,3 C 61 % 82 % 1013,8 hPa 0,0 l/m 2,7 km/h (1 Bft) S 180 5 min 13,0 C 26,1 C 2,1 km/h (1 Bft)
02.08.2021 13:40 20,9 C 18,1 C 19,9 C 26,3 C 26,3 C 5,4 C 61 % 81 % 1013,8 hPa 0,0 l/m 2,6 km/h (1 Bft) S 180 5 min 13,1 C 26,3 C 2,7 km/h (1 Bft)
02.08.2021 13:45 20,7 C 18,1 C 19,5 C 25,5 C 25,5 C 4,8 C 59 % 80 % 1013,8 hPa 0,0 l/m 2,9 km/h (1 Bft) SW 225 5 min 12,4 C 25,5 C 3,7 km/h (1 Bft)
02.08.2021 13:50 20,3 C 18,1 C 19,1 C 23,8 C 23,8 C 3,5 C 60 % 80 % 1013,8 hPa 0,0 l/m 3,1 km/h (1 Bft) NO 45 5 min 12,3 C 23,8 C 4,5 km/h (1 Bft)
02.08.2021 13:55 20,1 C 18,1 C 19,2 C 23,0 C 23,0 C 2,9 C 63 % 81 % 1013,9 hPa 0,0 l/m 2,3 km/h (1 Bft) S-SW 202 0 min 12,8 C 23,0 C 2,1 km/h (1 Bft)
02.08.2021 14:00 20,2 C 18,1 C 19,4 C 23,6 C 23,6 C 3,4 C 63 % 81 % 1013,9 hPa 0,0 l/m 1,3 km/h (1 Bft) SO 135 5 min 12,9 C 23,6 C 0,0 km/h (0 Bft)
02.08.2021 14:05 20,4 C 18,1 C 19,3 C 23,2 C 23,2 C 2,8 C 63 % 81 % 1013,9 hPa 0,0 l/m 1,1 km/h (1 Bft) SW 225 0 min 13,1 C 23,2 C 4,3 km/h (1 Bft)
02.08.2021 14:10 20,3 C 18,1 C 19,3 C 22,8 C 22,8 C 2,5 C 62 % 80 % 1013,9 hPa 0,0 l/m 1,1 km/h (1 Bft) SW 225 0 min 12,8 C 22,8 C 0,0 km/h (0 Bft)
02.08.2021 14:15 20,3 C 18,1 C 19,3 C 23,4 C 23,4 C 3,1 C 62 % 80 % 1013,8 hPa 0,0 l/m 1,6 km/h (1 Bft) SW 225 0 min 12,8 C 23,4 C 0,0 km/h (0 Bft)
02.08.2021 14:20 20,2 C 18,1 C 19,2 C 23,1 C 23,1 C 2,9 C 62 % 80 % 1013,8 hPa 0,0 l/m 1,3 km/h (1 Bft) S-SW 202 0 min 12,7 C 23,1 C 3,1 km/h (1 Bft)
02.08.2021 14:25 20,3 C 18,1 C 19,3 C 23,3 C 23,3 C 3,0 C 64 % 79 % 1013,8 hPa 0,0 l/m 1,0 km/h (0 Bft) SO 135 0 min 13,3 C 23,3 C 0,0 km/h (0 Bft)
02.08.2021 14:30 20,5 C 18,1 C 19,5 C 23,6 C 23,6 C 3,1 C 64 % 79 % 1013,8 hPa 0,0 l/m 1,3 km/h (1 Bft) S-SO 157 0 min 13,5 C 23,6 C 1,8 km/h (1 Bft)
02.08.2021 14:35 20,4 C 18,1 C 19,6 C 23,6 C 23,6 C 3,2 C 62 % 77 % 1013,9 hPa 0,0 l/m 1,6 km/h (1 Bft) S 180 0 min 12,9 C 23,6 C 2,3 km/h (1 Bft)
02.08.2021 14:40 20,5 C 18,1 C 19,7 C 23,8 C 23,8 C 3,3 C 63 % 77 % 1013,9 hPa 0,0 l/m 1,4 km/h (1 Bft) SW 225 5 min 13,2 C 23,8 C 2,3 km/h (1 Bft)
02.08.2021 14:45 20,6 C 18,1 C 19,7 C 23,7 C 23,7 C 3,1 C 63 % 77 % 1013,9 hPa 0,0 l/m 0,8 km/h (0 Bft) SW 225 0 min 13,3 C 23,7 C 1,8 km/h (1 Bft)
02.08.2021 14:50 20,6 C 18,1 C 19,5 C 23,6 C 23,6 C 3,0 C 63 % 77 % 1013,9 hPa 0,0 l/m 0,8 km/h (0 Bft) N 360 0 min 13,3 C 23,6 C 2,3 km/h (1 Bft)
02.08.2021 14:55 20,5 C 18,1 C 19,4 C 23,3 C 23,3 C 2,8 C 63 % 78 % 1013,8 hPa 0,0 l/m 0,6 km/h (0 Bft) SW 225 0 min 13,2 C 23,3 C 1,6 km/h (1 Bft)
02.08.2021 15:00 20,5 C 18,1 C 19,4 C 23,2 C 23,2 C 2,7 C 63 % 78 % 1013,8 hPa 0,0 l/m 0,6 km/h (0 Bft) S-SW 202 0 min 13,2 C 23,2 C 0,0 km/h (0 Bft)
02.08.2021 15:05 20,5 C 18,1 C 19,6 C 23,6 C 23,6 C 3,1 C 63 % 77 % 1013,8 hPa 0,0 l/m 0,8 km/h (0 Bft) W-SW 247 0 min 13,2 C 23,6 C 2,4 km/h (1 Bft)
02.08.2021 15:10 20,7 C 18,1 C 19,5 C 23,5 C 23,5 C 2,8 C 63 % 77 % 1013,8 hPa 0,0 l/m 0,8 km/h (0 Bft) O-SO 112 0 min 13,4 C 23,5 C 1,6 km/h (1 Bft)
02.08.2021 15:15 20,5 C 18,1 C 19,1 C 22,4 C 22,4 C 1,9 C 62 % 76 % 1013,6 hPa 0,0 l/m 1,0 km/h (0 Bft) S 180 0 min 13,0 C 22,4 C 2,1 km/h (1 Bft)
02.08.2021 15:20 20,3 C 18,1 C 19,0 C 21,7 C 21,7 C 1,4 C 62 % 77 % 1013,6 hPa 0,0 l/m 1,0 km/h (0 Bft) W 270 0 min 12,8 C 21,7 C 0,0 km/h (0 Bft)
02.08.2021 15:25 20,0 C 18,1 C 18,5 C 20,2 C 20,2 C 0,2 C 64 % 78 % 1013,6 hPa 0,0 l/m 1,4 km/h (1 Bft) S 180 0 min 13,0 C 20,2 C 4,2 km/h (1 Bft)
02.08.2021 15:30 19,6 C 18,2 C 18,2 C 19,3 C 18,8 C 0,0 C 65 % 79 % 1013,6 hPa 0,0 l/m 2,1 km/h (1 Bft) SW 225 0 min 12,8 C 18,8 C 1,9 km/h (1 Bft)
02.08.2021 15:35 18,9 C 18,4 C 17,6 C 18,3 C 17,1 C 0,0 C 70 % 85 % 1014,5 hPa 0,0 l/m 2,1 km/h (1 Bft) W-SW 247 0 min 13,3 C 17,1 C 1,6 km/h (1 Bft)
02.08.2021 15:40 18,4 C 18,5 C 17,2 C 17,7 C 16,4 C 0,0 C 72 % 86 % 1014,5 hPa 0,7 l/m 1,1 km/h (1 Bft) SW 225 0 min 13,3 C 16,4 C 0,0 km/h (0 Bft)
02.08.2021 15:45 17,9 C 18,6 C 16,7 C 17,3 C 16,0 C 0,0 C 74 % 88 % 1014,5 hPa 0,0 l/m 0,3 km/h (0 Bft) W-NW 292 0 min 13,2 C 16,0 C 0,0 km/h (0 Bft)
02.08.2021 15:50 17,7 C 18,7 C 16,5 C 17,1 C 15,9 C 0,0 C 76 % 89 % 1014,5 hPa 0,7 l/m 0,2 km/h (0 Bft) SW 225 0 min 13,4 C 15,9 C 0,0 km/h (0 Bft)
02.08.2021 15:55 17,5 C 18,7 C 16,5 C 17,0 C 16,1 C 0,0 C 77 % 89 % 1013,9 hPa 0,0 l/m 0,0 km/h (0 Bft) S-SO 157 0 min 13,4 C 16,1 C 0,0 km/h (0 Bft)
02.08.2021 16:00 17,5 C 18,8 C 16,5 C 17,1 C 16,3 C 0,0 C 78 % 90 % 1013,9 hPa 0,0 l/m 0,0 km/h (0 Bft) O-SO 112 0 min 13,6 C 16,3 C 0,0 km/h (0 Bft)
02.08.2021 16:05 17,6 C 18,8 C 16,7 C 17,6 C 17,6 C 0,0 C 81 % 91 % 1013,9 hPa 0,0 l/m 0,0 km/h (0 Bft) O-NO 67 0 min 14,3 C 17,6 C 0,0 km/h (0 Bft)
02.08.2021 16:10 17,7 C 18,8 C 16,9 C 18,3 C 18,3 C 0,6 C 81 % 92 % 1013,9 hPa 0,0 l/m 0,0 km/h (0 Bft) O-NO 67 0 min 14,4 C 18,3 C 0,0 km/h (0 Bft)
02.08.2021 16:15 17,9 C 18,8 C 16,9 C 18,4 C 18,4 C 0,5 C 82 % 92 % 1013,9 hPa 0,0 l/m 0,0 km/h (0 Bft) W 270 0 min 14,8 C 18,4 C 0,0 km/h (0 Bft)
02.08.2021 16:20 17,8 C 18,8 C 17,0 C 18,8 C 18,8 C 1,0 C 83 % 92 % 1013,9 hPa 0,0 l/m 0,2 km/h (0 Bft) S-SO 157 0 min 14,9 C 18,8 C 0,0 km/h (0 Bft)
02.08.2021 16:25 17,9 C 18,7 C 17,1 C 20,1 C 20,1 C 2,2 C 83 % 92 % 1013,9 hPa 0,0 l/m 0,2 km/h (0 Bft) SW 225 0 min 15,0 C 20,1 C 0,0 km/h (0 Bft)
02.08.2021 16:30 17,9 C 18,7 C 17,2 C 20,6 C 20,6 C 2,7 C 83 % 92 % 1013,9 hPa 0,0 l/m 0,2 km/h (0 Bft) S-SO 157 0 min 15,0 C 20,6 C 0,0 km/h (0 Bft)
02.08.2021 16:35 18,0 C 18,7 C 17,3 C 22,5 C 22,5 C 4,5 C 83 % 92 % 1013,8 hPa 0,0 l/m 0,0 km/h (0 Bft) NO 45 5 min 15,1 C 22,5 C 0,0 km/h (0 Bft)
02.08.2021 16:40 18,0 C 18,6 C 17,4 C 23,5 C 23,5 C 5,5 C 83 % 92 % 1013,8 hPa 0,0 l/m 0,0 km/h (0 Bft) SW 225 5 min 15,1 C 23,5 C 0,0 km/h (0 Bft)
02.08.2021 16:45 18,1 C 18,6 C 17,6 C 24,8 C 24,8 C 6,7 C 83 % 92 % 1013,8 hPa 0,0 l/m 0,2 km/h (0 Bft) S 180 5 min 15,2 C 24,8 C 0,0 km/h (0 Bft)
02.08.2021 16:50 18,4 C 18,5 C 17,7 C 25,5 C 25,5 C 7,1 C 84 % 92 % 1013,8 hPa 0,0 l/m 0,0 km/h (0 Bft) S 180 5 min 15,6 C 25,5 C 0,0 km/h (0 Bft)
02.08.2021 16:55 18,4 C 18,4 C 18,0 C 25,9 C 25,9 C 7,5 C 82 % 93 % 1013,4 hPa 0,0 l/m 0,2 km/h (0 Bft) W-SW 247 5 min 15,3 C 25,9 C 0,0 km/h (0 Bft)
02.08.2021 17:00 18,5 C 18,3 C 18,0 C 25,4 C 25,4 C 6,9 C 82 % 92 % 1013,4 hPa 0,0 l/m 0,3 km/h (0 Bft) W-SW 247 5 min 15,4 C 25,4 C 2,4 km/h (1 Bft)
02.08.2021 17:05 18,7 C 18,3 C 18,2 C 23,9 C 23,9 C 5,2 C 80 % 92 % 1013,4 hPa 0,0 l/m 0,6 km/h (0 Bft) SW 225 5 min 15,2 C 23,9 C 7,9 km/h (2 Bft)
02.08.2021 17:10 18,8 C 18,3 C 18,3 C 23,3 C 23,3 C 4,5 C 80 % 92 % 1013,4 hPa 0,0 l/m 0,6 km/h (0 Bft) W-SW 247 5 min 15,3 C 23,3 C 0,0 km/h (0 Bft)
02.08.2021 17:15 19,1 C 18,3 C 18,3 C 23,5 C 23,5 C 4,4 C 80 % 92 % 1013,5 hPa 0,0 l/m 0,5 km/h (0 Bft) S 180 5 min 15,6 C 23,5 C 0,0 km/h (0 Bft)
02.08.2021 17:20 19,2 C 18,3 C 18,5 C 23,6 C 23,6 C 4,4 C 78 % 91 % 1013,5 hPa 0,0 l/m 0,2 km/h (0 Bft) S-SW 202 5 min 15,3 C 23,6 C 0,0 km/h (0 Bft)
02.08.2021 17:25 19,4 C 18,3 C 18,5 C 23,3 C 23,3 C 3,9 C 77 % 91 % 1013,5 hPa 0,0 l/m 1,1 km/h (1 Bft) SW 225 5 min 15,3 C 23,3 C 2,6 km/h (1 Bft)
02.08.2021 17:30 19,4 C 18,4 C 18,5 C 22,7 C 22,7 C 3,3 C 76 % 91 % 1013,5 hPa 0,0 l/m 1,1 km/h (1 Bft) SO 135 5 min 15,1 C 22,7 C 0,0 km/h (0 Bft)
02.08.2021 17:35 19,7 C 18,4 C 18,6 C 22,8 C 22,8 C 3,1 C 76 % 91 % 1013,4 hPa 0,0 l/m 0,8 km/h (0 Bft) SW 225 0 min 15,3 C 22,8 C 0,0 km/h (0 Bft)
02.08.2021 17:40 19,9 C 18,4 C 18,7 C 23,0 C 23,0 C 3,1 C 76 % 91 % 1013,4 hPa 0,0 l/m 0,5 km/h (0 Bft) W-SW 247 0 min 15,5 C 23,0 C 1,6 km/h (1 Bft)
02.08.2021 17:45 20,0 C 18,4 C 18,7 C 22,4 C 22,4 C 2,4 C 74 % 91 % 1013,4 hPa 0,0 l/m 0,3 km/h (0 Bft) S 180 0 min 15,2 C 22,4 C 0,0 km/h (0 Bft)
02.08.2021 17:50 20,0 C 18,4 C 18,8 C 22,0 C 22,0 C 2,0 C 74 % 91 % 1013,4 hPa 0,0 l/m 0,3 km/h (0 Bft) SO 135 0 min 15,2 C 22,0 C 0,0 km/h (0 Bft)
02.08.2021 17:55 20,0 C 18,4 C 18,8 C 21,5 C 21,5 C 1,5 C 73 % 91 % 1013,2 hPa 0,0 l/m 0,6 km/h (0 Bft) SW 225 0 min 15,0 C 21,5 C 0,0 km/h (0 Bft)
02.08.2021 18:00 20,1 C 18,4 C 18,7 C 21,2 C 21,2 C 1,1 C 74 % 91 % 1013,2 hPa 0,0 l/m 0,6 km/h (0 Bft) SO 135 0 min 15,3 C 21,2 C 0,0 km/h (0 Bft)
02.08.2021 18:05 20,0 C 18,4 C 18,6 C 21,1 C 21,1 C 1,1 C 73 % 91 % 1013,2 hPa 0,0 l/m 0,3 km/h (0 Bft) S 180 0 min 15,0 C 21,1 C 1,9 km/h (1 Bft)
02.08.2021 18:10 19,9 C 18,4 C 18,5 C 20,8 C 20,8 C 0,9 C 72 % 90 % 1013,2 hPa 0,0 l/m 0,5 km/h (0 Bft) S-SW 202 0 min 14,7 C 20,8 C 0,0 km/h (0 Bft)
02.08.2021 18:15 19,7 C 18,4 C 18,2 C 20,3 C 20,3 C 0,6 C 72 % 91 % 1013,4 hPa 0,0 l/m 0,5 km/h (0 Bft) W-SW 247 0 min 14,5 C 20,3 C 0,0 km/h (0 Bft)
02.08.2021 18:20 19,6 C 18,4 C 18,1 C 19,9 C 19,9 C 0,3 C 72 % 91 % 1013,4 hPa 0,0 l/m 0,5 km/h (0 Bft) S 180 0 min 14,4 C 19,9 C 1,9 km/h (1 Bft)
02.08.2021 18:25 19,5 C 18,4 C 17,9 C 19,2 C 18,5 C 0,0 C 73 % 91 % 1013,4 hPa 0,0 l/m 0,5 km/h (0 Bft) W-SW 247 0 min 14,5 C 18,5 C 0,0 km/h (0 Bft)
02.08.2021 18:30 19,3 C 18,5 C 17,6 C 18,6 C 17,3 C 0,0 C 74 % 91 % 1013,4 hPa 0,0 l/m 0,6 km/h (0 Bft) S 180 0 min 14,5 C 17,3 C 1,9 km/h (1 Bft)
02.08.2021 18:35 18,6 C 18,6 C 17,0 C 17,8 C 16,3 C 0,0 C 75 % 91 % 1014,1 hPa 0,7 l/m 0,6 km/h (0 Bft) W 270 0 min 14,1 C 16,3 C 0,0 km/h (0 Bft)
02.08.2021 18:40 18,5 C 18,6 C 16,7 C 17,6 C 15,9 C 0,0 C 75 % 92 % 1014,1 hPa 0,0 l/m 0,3 km/h (0 Bft) W-SW 247 0 min 14,0 C 15,9 C 0,0 km/h (0 Bft)
02.08.2021 18:45 17,9 C 18,9 C 16,3 C 17,1 C 15,6 C 0,0 C 76 % 91 % 1014,1 hPa 0,7 l/m 0,0 km/h (0 Bft) W 270 0 min 13,6 C 15,6 C 0,0 km/h (0 Bft)
02.08.2021 18:50 17,7 C 18,9 C 16,2 C 17,0 C 15,6 C 0,0 C 77 % 92 % 1014,1 hPa 0,0 l/m 0,0 km/h (0 Bft) SO 135 0 min 13,6 C 15,6 C 0,0 km/h (0 Bft)
02.08.2021 18:55 17,5 C 18,9 C 16,2 C 17,0 C 16,0 C 0,0 C 78 % 92 % 1013,5 hPa 0,0 l/m 0,0 km/h (0 Bft) O-NO 67 0 min 13,6 C 16,0 C 0,0 km/h (0 Bft)
02.08.2021 19:00 17,5 C 18,9 C 16,2 C 17,0 C 16,1 C 0,0 C 80 % 93 % 1013,5 hPa 0,0 l/m 0,0 km/h (0 Bft) O-NO 67 0 min 14,0 C 16,1 C 0,0 km/h (0 Bft)
02.08.2021 19:05 17,4 C 18,9 C 16,2 C 17,0 C 16,3 C 0,0 C 81 % 93 % 1013,5 hPa 0,0 l/m 0,0 km/h (0 Bft) O-NO 67 0 min 14,1 C 16,3 C 0,0 km/h (0 Bft)
02.08.2021 19:10 17,4 C 18,9 C 16,4 C 17,2 C 16,7 C 0,0 C 82 % 93 % 1013,5 hPa 0,0 l/m 0,0 km/h (0 Bft) O-NO 67 0 min 14,3 C 16,7 C 0,0 km/h (0 Bft)
02.08.2021 19:15 17,7 C 18,9 C 16,4 C 17,5 C 17,1 C 0,0 C 83 % 93 % 1013,6 hPa 0,0 l/m 0,0 km/h (0 Bft) N 360 0 min 14,8 C 17,1 C 0,0 km/h (0 Bft)
02.08.2021 19:20 17,7 C 19,0 C 16,5 C 17,5 C 17,1 C 0,0 C 83 % 93 % 1013,6 hPa 0,0 l/m 0,0 km/h (0 Bft) N-NW 337 0 min 14,8 C 17,1 C 0,0 km/h (0 Bft)
02.08.2021 19:25 17,8 C 19,0 C 16,4 C 17,5 C 16,9 C 0,0 C 84 % 93 % 1013,6 hPa 0,0 l/m 0,0 km/h (0 Bft) S 180 0 min 15,1 C 16,9 C 0,0 km/h (0 Bft)
02.08.2021 19:30 17,7 C 19,0 C 16,3 C 17,4 C 16,7 C 0,0 C 83 % 93 % 1013,6 hPa 0,0 l/m 0,0 km/h (0 Bft) W 270 0 min 14,8 C 16,7 C 1,9 km/h (1 Bft)
02.08.2021 19:35 17,7 C 19,0 C 16,3 C 17,3 C 16,6 C 0,0 C 83 % 93 % 1013,5 hPa 0,0 l/m 0,0 km/h (0 Bft) SW 225 0 min 14,8 C 16,6 C 0,0 km/h (0 Bft)
02.08.2021 19:40 17,5 C 19,0 C 16,4 C 17,4 C 17,1 C 0,0 C 83 % 93 % 1013,5 hPa 0,0 l/m 0,0 km/h (0 Bft) SW 225 0 min 14,6 C 17,1 C 0,0 km/h (0 Bft)
02.08.2021 19:45 17,4 C 18,9 C 16,3 C 18,3 C 18,3 C 0,9 C 83 % 93 % 1013,5 hPa 0,0 l/m 0,0 km/h (0 Bft) O-SO 112 0 min 14,5 C 18,3 C 0,0 km/h (0 Bft)
02.08.2021 19:50 17,5 C 18,9 C 16,3 C 18,6 C 18,6 C 1,1 C 83 % 93 % 1013,5 hPa 0,0 l/m 0,0 km/h (0 Bft) S 180 0 min 14,6 C 18,6 C 0,0 km/h (0 Bft)
02.08.2021 19:55 17,3 C 19,0 C 16,2 C 19,0 C 19,0 C 1,7 C 83 % 94 % 1013,8 hPa 0,0 l/m 0,0 km/h (0 Bft) S 180 5 min 14,4 C 19,0 C 0,0 km/h (0 Bft)
02.08.2021 20:00 17,3 C 18,9 C 16,2 C 18,7 C 18,7 C 1,4 C 83 % 94 % 1013,8 hPa 0,0 l/m 0,0 km/h (0 Bft) S-SO 157 5 min 14,4 C 18,7 C 0,0 km/h (0 Bft)
02.08.2021 20:05 17,2 C 19,0 C 15,9 C 17,8 C 17,8 C 0,6 C 83 % 93 % 1013,8 hPa 0,0 l/m 0,0 km/h (0 Bft) SO 135 0 min 14,3 C 17,8 C 0,0 km/h (0 Bft)
02.08.2021 20:10 17,0 C 19,0 C 15,9 C 17,4 C 17,4 C 0,4 C 83 % 93 % 1013,8 hPa 0,0 l/m 0,0 km/h (0 Bft) SO 135 0 min 14,1 C 17,4 C 0,0 km/h (0 Bft)
02.08.2021 20:15 16,9 C 19,0 C 15,8 C 16,8 C 16,7 C 0,0 C 83 % 93 % 1013,9 hPa 0,0 l/m 0,0 km/h (0 Bft) O 90 0 min 14,0 C 16,7 C 0,0 km/h (0 Bft)
02.08.2021 20:20 16,9 C 19,0 C 15,7 C 16,7 C 16,4 C 0,0 C 83 % 93 % 1013,9 hPa 0,0 l/m 0,0 km/h (0 Bft) O 90 0 min 14,0 C 16,4 C 0,0 km/h (0 Bft)
02.08.2021 20:25 16,6 C 19,0 C 15,6 C 16,4 C 16,0 C 0,0 C 84 % 93 % 1013,9 hPa 0,0 l/m 0,0 km/h (0 Bft) SO 135 0 min 13,9 C 16,0 C 0,0 km/h (0 Bft)
02.08.2021 20:30 16,5 C 18,9 C 15,5 C 16,3 C 15,8 C 0,0 C 84 % 93 % 1013,9 hPa 0,0 l/m 0,0 km/h (0 Bft) O-NO 67 0 min 13,8 C 15,8 C 0,0 km/h (0 Bft)
02.08.2021 20:35 16,5 C 19,0 C 15,4 C 16,1 C 15,4 C 0,0 C 84 % 93 % 1013,8 hPa 0,0 l/m 0,0 km/h (0 Bft) O-NO 67 0 min 13,8 C 15,4 C 0,0 km/h (0 Bft)
02.08.2021 20:40 16,3 C 19,0 C 15,3 C 15,9 C 15,2 C 0,0 C 84 % 93 % 1013,8 hPa 0,0 l/m 0,0 km/h (0 Bft) O 90 0 min 13,6 C 15,2 C 0,0 km/h (0 Bft)
02.08.2021 20:45 16,2 C 18,9 C 15,3 C 15,8 C 15,1 C 0,0 C 85 % 93 % 1013,8 hPa 0,0 l/m 0,2 km/h (0 Bft) S-SO 157 0 min 13,7 C 15,1 C 0,0 km/h (0 Bft)
02.08.2021 20:50 16,3 C 18,9 C 15,3 C 15,9 C 15,0 C 0,0 C 85 % 93 % 1013,8 hPa 0,0 l/m 0,2 km/h (0 Bft) S-SO 157 0 min 13,8 C 15,0 C 0,0 km/h (0 Bft)
02.08.2021 20:55 16,1 C 18,9 C 15,2 C 15,7 C 14,9 C 0,0 C 85 % 93 % 1014,1 hPa 0,0 l/m 0,0 km/h (0 Bft) S-SO 157 0 min 13,6 C 14,9 C 0,0 km/h (0 Bft)
02.08.2021 21:00 16,0 C 18,9 C 15,2 C 15,6 C 14,8 C 0,0 C 85 % 93 % 1014,1 hPa 0,0 l/m 0,0 km/h (0 Bft) SO 135 0 min 13,5 C 14,8 C 0,0 km/h (0 Bft)
02.08.2021 21:05 15,9 C 18,9 C 15,1 C 15,5 C 14,6 C 0,0 C 85 % 93 % 1014,1 hPa 0,0 l/m 0,0 km/h (0 Bft) O-SO 112 0 min 13,4 C 14,6 C 0,0 km/h (0 Bft)
02.08.2021 21:10 15,9 C 18,9 C 15,0 C 15,4 C 14,5 C 0,0 C 85 % 93 % 1014,1 hPa 0,0 l/m 0,0 km/h (0 Bft) O-SO 112 0 min 13,4 C 14,5 C 0,0 km/h (0 Bft)
02.08.2021 21:15 15,8 C 18,9 C 14,9 C 15,3 C 14,4 C 0,0 C 86 % 93 % 1013,9 hPa 0,0 l/m 0,0 km/h (0 Bft) O 90 0 min 13,5 C 14,4 C 0,0 km/h (0 Bft)
02.08.2021 21:20 15,7 C 18,9 C 14,8 C 15,3 C 14,4 C 0,0 C 86 % 93 % 1013,9 hPa 0,0 l/m 0,3 km/h (0 Bft) S-SO 157 0 min 13,4 C 14,4 C 0,0 km/h (0 Bft)
02.08.2021 21:25 15,7 C 18,9 C 14,8 C 15,2 C 14,3 C 0,0 C 86 % 93 % 1013,9 hPa 0,0 l/m 0,2 km/h (0 Bft) SW 225 0 min 13,4 C 14,3 C 0,0 km/h (0 Bft)
02.08.2021 21:30 15,6 C 18,9 C 14,8 C 15,1 C 14,2 C 0,0 C 86 % 93 % 1013,9 hPa 0,0 l/m 0,0 km/h (0 Bft) SO 135 0 min 13,3 C 14,2 C 0,0 km/h (0 Bft)
02.08.2021 21:35 15,5 C 18,9 C 14,6 C 15,0 C 14,0 C 0,0 C 86 % 93 % 1014,1 hPa 0,0 l/m 0,0 km/h (0 Bft) SO 135 0 min 13,2 C 14,0 C 0,0 km/h (0 Bft)
02.08.2021 21:40 15,3 C 19,0 C 14,5 C 14,9 C 14,0 C 0,0 C 86 % 93 % 1014,1 hPa 0,0 l/m 0,0 km/h (0 Bft) SO 135 0 min 13,0 C 14,0 C 0,0 km/h (0 Bft)
02.08.2021 21:45 15,2 C 19,0 C 14,5 C 14,7 C 13,8 C 0,0 C 86 % 93 % 1014,1 hPa 0,0 l/m 0,0 km/h (0 Bft) SO 135 0 min 12,9 C 13,8 C 0,0 km/h (0 Bft)
02.08.2021 21:50 15,2 C 19,0 C 14,5 C 14,7 C 13,7 C 0,0 C 86 % 93 % 1014,1 hPa 0,0 l/m 0,0 km/h (0 Bft) SO 135 0 min 12,9 C 13,7 C 0,0 km/h (0 Bft)
02.08.2021 21:55 15,1 C 19,0 C 14,3 C 14,6 C 13,7 C 0,0 C 87 % 93 % 1014,2 hPa 0,0 l/m 0,0 km/h (0 Bft) SO 135 0 min 13,0 C 13,7 C 0,0 km/h (0 Bft)
02.08.2021 22:00 14,9 C 19,0 C 14,3 C 14,5 C 13,6 C 0,0 C 87 % 93 % 1014,2 hPa 0,0 l/m 0,0 km/h (0 Bft) SO 135 0 min 12,8 C 13,6 C 0,0 km/h (0 Bft)
02.08.2021 22:05 14,8 C 19,0 C 14,2 C 14,3 C 13,4 C 0,0 C 87 % 93 % 1014,2 hPa 0,0 l/m 0,0 km/h (0 Bft) SO 135 0 min 12,7 C 13,4 C 0,0 km/h (0 Bft)
02.08.2021 22:10 14,8 C 18,9 C 14,1 C 14,3 C 13,4 C 0,0 C 87 % 94 % 1014,2 hPa 0,0 l/m 0,0 km/h (0 Bft) SO 135 0 min 12,7 C 13,4 C 0,0 km/h (0 Bft)
02.08.2021 22:15 14,6 C 18,9 C 13,9 C 14,2 C 13,3 C 0,0 C 87 % 94 % 1014,2 hPa 0,0 l/m 0,0 km/h (0 Bft) SO 135 0 min 12,5 C 13,3 C 0,0 km/h (0 Bft)
02.08.2021 22:20 14,6 C 18,9 C 13,9 C 14,2 C 13,3 C 0,0 C 87 % 94 % 1014,2 hPa 0,0 l/m 0,0 km/h (0 Bft) SO 135 0 min 12,5 C 13,3 C 0,0 km/h (0 Bft)
02.08.2021 22:25 14,4 C 19,0 C 13,9 C 14,0 C 13,3 C 0,0 C 87 % 94 % 1014,2 hPa 0,0 l/m 0,0 km/h (0 Bft) SO 135 0 min 12,3 C 13,3 C 0,0 km/h (0 Bft)
02.08.2021 22:30 14,5 C 18,9 C 13,9 C 14,1 C 13,3 C 0,0 C 87 % 94 % 1014,2 hPa 0,0 l/m 0,0 km/h (0 Bft) SO 135 0 min 12,4 C 13,3 C 0,0 km/h (0 Bft)
02.08.2021 22:35 14,4 C 18,9 C 13,9 C 14,1 C 13,4 C 0,0 C 87 % 94 % 1014,3 hPa 0,0 l/m 0,0 km/h (0 Bft) SO 135 0 min 12,3 C 13,4 C 0,0 km/h (0 Bft)
02.08.2021 22:40 14,3 C 18,9 C 13,9 C 14,0 C 13,4 C 0,0 C 87 % 94 % 1014,3 hPa 0,0 l/m 0,0 km/h (0 Bft) SO 135 0 min 12,2 C 13,4 C 0,0 km/h (0 Bft)
02.08.2021 22:45 14,3 C 18,9 C 13,9 C 14,0 C 13,4 C 0,0 C 87 % 93 % 1014,3 hPa 0,0 l/m 0,0 km/h (0 Bft) SO 135 0 min 12,2 C 13,4 C 0,0 km/h (0 Bft)
02.08.2021 22:50 14,3 C 18,9 C 13,9 C 14,0 C 13,4 C 0,0 C 87 % 94 % 1014,3 hPa 0,0 l/m 0,0 km/h (0 Bft) SO 135 0 min 12,2 C 13,4 C 0,0 km/h (0 Bft)
02.08.2021 22:55 14,2 C 18,9 C 13,9 C 14,0 C 13,5 C 0,0 C 87 % 93 % 1014,5 hPa 0,0 l/m 0,0 km/h (0 Bft) SO 135 0 min 12,1 C 13,5 C 0,0 km/h (0 Bft)
02.08.2021 23:00 14,1 C 18,9 C 13,9 C 13,9 C 13,6 C 0,0 C 87 % 93 % 1014,5 hPa 0,0 l/m 0,0 km/h (0 Bft) SO 135 0 min 12,0 C 13,6 C 0,0 km/h (0 Bft)
02.08.2021 23:05 14,1 C 18,9 C 13,9 C 13,9 C 13,6 C 0,0 C 87 % 93 % 1014,5 hPa 0,0 l/m 0,0 km/h (0 Bft) SO 135 0 min 12,0 C 13,6 C 0,0 km/h (0 Bft)
02.08.2021 23:10 14,0 C 18,9 C 13,9 C 13,8 C 13,5 C 0,0 C 87 % 93 % 1014,5 hPa 0,0 l/m 0,0 km/h (0 Bft) W-SW 247 0 min 11,9 C 13,5 C 0,0 km/h (0 Bft)
02.08.2021 23:15 14,1 C 18,9 C 13,9 C 13,9 C 13,4 C 0,0 C 87 % 93 % 1014,4 hPa 0,0 l/m 0,0 km/h (0 Bft) SW 225 0 min 12,0 C 13,4 C 0,0 km/h (0 Bft)
02.08.2021 23:20 14,0 C 18,9 C 13,9 C 13,8 C 13,3 C 0,0 C 87 % 93 % 1014,4 hPa 0,0 l/m 0,0 km/h (0 Bft) SW 225 0 min 11,9 C 13,3 C 0,0 km/h (0 Bft)
02.08.2021 23:25 13,9 C 18,9 C 13,8 C 13,7 C 13,2 C 0,0 C 87 % 94 % 1014,4 hPa 0,0 l/m 0,0 km/h (0 Bft) SW 225 0 min 11,8 C 13,2 C 0,0 km/h (0 Bft)
02.08.2021 23:30 13,9 C 18,9 C 13,7 C 13,6 C 13,1 C 0,0 C 87 % 94 % 1014,4 hPa 0,0 l/m 0,0 km/h (0 Bft) SW 225 0 min 11,8 C 13,1 C 0,0 km/h (0 Bft)
02.08.2021 23:35 13,9 C 18,9 C 13,6 C 13,6 C 13,1 C 0,0 C 87 % 94 % 1014,4 hPa 0,0 l/m 0,0 km/h (0 Bft) S-SW 202 0 min 11,8 C 13,1 C 0,0 km/h (0 Bft)
02.08.2021 23:40 13,7 C 18,8 C 13,5 C 13,5 C 13,0 C 0,0 C 87 % 94 % 1014,4 hPa 0,0 l/m 0,0 km/h (0 Bft) SW 225 0 min 11,6 C 13,0 C 0,0 km/h (0 Bft)
02.08.2021 23:45 13,6 C 18,8 C 13,5 C 13,4 C 12,9 C 0,0 C 87 % 94 % 1014,4 hPa 0,0 l/m 0,0 km/h (0 Bft) SW 225 0 min 11,5 C 12,9 C 0,0 km/h (0 Bft)
02.08.2021 23:50 13,6 C 18,8 C 13,5 C 13,3 C 12,7 C 0,0 C 87 % 94 % 1014,4 hPa 0,0 l/m 0,0 km/h (0 Bft) S-SW 202 0 min 11,5 C 12,7 C 0,0 km/h (0 Bft)
02.08.2021 23:55 13,6 C 18,8 C 13,4 C 13,3 C 12,6 C 0,0 C 87 % 94 % 1014,9 hPa 0,0 l/m 0,0 km/h (0 Bft) S-SW 202 0 min 11,5 C 12,6 C 0,0 km/h (0 Bft)
_ Min-Zeit 02:10 12:55 01:15 01:25 00:25 00:00 13:45 15:15 00:00 - 00:00 - - - 01:35 00:25 00:05
Minimum _ 12,8 C 18,0 C 12,8 C 12,7 C 12,1 C 0,0 C 59 % 76 % 1010,5 hPa - 0,0 km/h (0 Bft) - - - 10,8 C 12,1 C 0,0 km/h (0 Bft)
_ Max-Zeit 13:40 00:00 13:20 13:40 13:40 16:55 01:50 10:10 23:55 04:05 12:25 - - 05:50 16:50 13:40 12:20
Maximum _ 20,9 C 19,5 C 19,9 C 26,3 C 26,3 C 7,5 C 88 % 94 % 1014,9 hPa 1,4 l/m 3,4 km/h
SW (1 Bft)
- - 5 min 15,6 C 26,3 C 10,3 km/h
SO (2 Bft)
Durchschnitt _ 15,9 C 18,7 C 15,6 C 17,3 C 17,1 C 1,5 C 82 % 91 % 1013,0 hPa #4,8 l/m 0,6 km/h (0 Bft) SW - #5:10 h 12,7 C 17,1 C 1,0 km/h (0 Bft)
2021 www.wetterstation-wechselburg.de